Terminal Aerodrome Forecast
Issued by NWS King Salmon, AK

Home | Current Version | Previous Version | Text Only | Print | Product List | Glossary On
Versions: 1 2 3 4 5 6 7 8 9 10 11 12 13 14 15 16 17
000
FTAK31 PANC 262339
TAFAKN
TAF
PAKN 262339Z 2700/2724 14010KT P6SM -SHRA SCT025 OVC040
      TEMPO 2700/2702 14014G22KT BKN025
     FM270800 11010KT P6SM -SHRA SCT025 OVC050
     FM271800 11015G25KT P6SM VCSH FEW030 BKN050=

USA.gov is the U.S. government's official web portal to all federal, state and local government web resources and services.